Vilonia, AR (72173)

4:52 AM CST on December 07, 2016 (GMT -0600)
Lower Ridge Critterville | | Change Station

Elev 371 ft 35.10 °N, 92.35 °W | Updated 11 seconds ago

Overcast
Overcast
41.4 °F
Feels Like 41 °F
N
0.7
Wind Variable Wind from SE
Gusts 1.6 mph

Today
High -- | Low -- °F
--% Chance of Precip.
Yesterday
High -- | Low -- °F
Precip. -- in
Pressure 30.15 in
Visibility 10.0 miles
Clouds Overcast 3500 ft
Windchill 41 °F
Dew Point 32 °F
Humidity 69%
Rainfall 0.00 in
Snow Depth Not available.
7:04 AM 4:56 PM
Waxing Crescent, 51% visible
METAR KLRF 070958Z AUTO 05008KT 10SM OVC035 06/01 A3014 RMK AO2 SLP210 T00560005
Pressure 30.15 in
Visibility 10.0 miles
Clouds Overcast 3500 ft
Windchill 41 °F
Dew Point 32 °F
Humidity 69%
Rainfall 0.00 in
Snow Depth Not available.
7:04 AM 4:56 PM
Waxing Crescent, 51% visible
METAR KLRF 070958Z AUTO 05008KT 10SM OVC035 06/01 A3014 RMK AO2 SLP210 T00560005

10-Day Weather Forecast

Almanac

Astronomy

Dec. 07, 2016 Rise Set
Actual Time
Civil Twilight
Nautical Twilight
Astronomical Twilight
Moon
Length of Visible Light
Length of Day
Tomorrow will be .
, % of the Moon is Illuminated

Today's Extremes

State Highs State Lows

Community

WunderPhotos

Upload Photos

1,956,111 photos uploaded!

WunderBlog® & News

Nearby

Air Quality

  Air Quality AQ Index Pollutant
Not available.

Snow Depth

Station Depth Elevation

Earthquake Activity

City Distance Mag. Time & Date
Minimum magnitude displayed is 2.5.

Coastal Water Temperatures

Place Temperature

Stations

Nearby Weather Stations

Station Location Temp. Windchill Dew Point Humidity Wind Precip. Elev Updated Type
                   

Watches & Warnings

There are currently no watches in effect.